Time;durP1;ratioP1;P1;durP2;ratioP2;P2;SDS_P1;SDS_P2;PMS_P1;PMS_P2;Temp;Humidity;BMP_temperature;BMP_pressure;BME280_temperature;BME280_humidity;BME280_pressure;Samples;Min_cycle;Max_cycle;Signal;HPM_P1;HPM_P2
2021/03/31 00:00:24;;;;;;;20.48;10.35;;;14.80;50.50;;;;;;5041709;28;20045;-71
2021/03/31 00:02:56;;;;;;;23.13;10.93;;;14.80;50.50;;;;;;5043396;28;20052;-71
2021/03/31 00:05:22;;;;;;;22.92;10.75;;;14.60;50.50;;;;;;5046491;28;20076;-70
2021/03/31 00:07:49;;;;;;;19.63;10.73;;;14.70;50.50;;;;;;5048750;28;20049;-71
2021/03/31 00:10:28;;;;;;;25.67;12.23;;;14.70;50.50;;;;;;5043114;28;20081;-71
2021/03/31 00:12:55;;;;;;;23.95;10.98;;;14.60;50.20;;;;;;5037348;28;20385;-71
2021/03/31 00:15:21;;;;;;;17.92;10.35;;;14.60;49.90;;;;;;5036144;28;20053;-71
2021/03/31 00:18:07;;;;;;;26.80;10.73;;;14.60;50.10;;;;;;5045374;28;20057;-71
2021/03/31 00:20:34;;;;;;;23.33;11.23;;;14.80;49.50;;;;;;5034456;28;20535;-72
2021/03/31 00:23:08;;;;;;;21.52;11.52;;;14.70;49.40;;;;;;5047669;28;20045;-70
2021/03/31 00:25:35;;;;;;;26.17;10.85;;;14.50;50.00;;;;;;5043305;28;20067;-70
2021/03/31 00:28:02;;;;;;;22.33;12.02;;;14.60;50.20;;;;;;5033848;28;20055;-70
2021/03/31 00:30:29;;;;;;;19.88;11.27;;;14.60;49.80;;;;;;5042558;28;20053;-71
2021/03/31 00:32:56;;;;;;;21.83;10.75;;;14.60;50.30;;;;;;5037750;28;20064;-72
2021/03/31 00:35:22;;;;;;;20.50;11.50;;;14.40;50.40;;;;;;5045096;28;20073;-71
2021/03/31 00:37:49;;;;;;;19.95;12.00;;;14.50;50.20;;;;;;5044205;28;20072;-71
2021/03/31 00:40:20;;;;;;;25.55;11.75;;;14.40;50.30;;;;;;5042030;28;20851;-71
2021/03/31 00:42:47;;;;;;;27.95;12.48;;;14.30;50.70;;;;;;5038988;28;20570;-70
2021/03/31 00:45:16;;;;;;;22.48;11.25;;;14.30;50.90;;;;;;5043889;28;20049;-70
2021/03/31 00:47:42;;;;;;;22.27;10.00;;;14.30;50.30;;;;;;5040636;28;20096;-71
2021/03/31 00:50:12;;;;;;;20.10;11.30;;;14.40;50.10;;;;;;5043636;28;20049;-70
2021/03/31 00:52:42;;;;;;;21.92;11.05;;;14.50;49.90;;;;;;5039366;28;20115;-71
2021/03/31 00:55:11;;;;;;;21.55;11.48;;;14.30;50.10;;;;;;5041769;28;20388;-71
2021/03/31 00:57:38;;;;;;;22.67;11.00;;;14.00;50.70;;;;;;5040074;28;20526;-70
2021/03/31 01:00:07;;;;;;;21.92;11.18;;;13.90;50.80;;;;;;5036123;28;20095;-70
2021/03/31 01:02:34;;;;;;;20.73;11.30;;;14.20;50.70;;;;;;5035253;28;20061;-70
2021/03/31 01:05:02;;;;;;;24.88;10.98;;;14.20;50.30;;;;;;5041586;28;20052;-71
2021/03/31 01:07:28;;;;;;;19.83;10.90;;;14.30;50.40;;;;;;5036159;28;20053;-70
2021/03/31 01:09:55;;;;;;;26.90;11.68;;;14.10;50.60;;;;;;5044924;28;20528;-70
2021/03/31 01:12:24;;;;;;;23.10;11.57;;;13.90;51.40;;;;;;5035105;28;20037;-71
2021/03/31 01:14:54;;;;;;;23.23;11.95;;;13.80;51.80;;;;;;5038215;28;20041;-70
2021/03/31 01:17:32;;;;;;;23.63;11.88;;;13.90;51.30;;;;;;5040125;28;20041;-70
2021/03/31 01:20:29;;;;;;;21.58;10.43;;;13.80;51.30;;;;;;5047791;28;20405;-71
2021/03/31 01:23:30;;;;;;;23.75;10.57;;;14.00;50.70;;;;;;5042418;28;20385;-71
2021/03/31 01:26:19;;;;;;;21.80;10.52;;;14.00;50.30;;;;;;5041994;28;20098;-70
2021/03/31 01:29:02;;;;;;;23.92;10.30;;;13.70;50.50;;;;;;5041074;28;20521;-71
2021/03/31 01:31:41;;;;;;;19.02;10.50;;;13.70;50.50;;;;;;5053050;28;20190;-70
2021/03/31 01:34:25;;;;;;;20.23;10.07;;;13.80;50.60;;;;;;5044514;28;20136;-70
2021/03/31 01:36:54;;;;;;;21.40;10.30;;;13.70;51.00;;;;;;5044818;28;20052;-70
2021/03/31 01:39:22;;;;;;;22.55;10.65;;;13.70;51.10;;;;;;5038011;28;20551;-70
2021/03/31 01:41:50;;;;;;;22.00;10.27;;;13.50;51.40;;;;;;5040013;28;20501;-71
2021/03/31 01:44:20;;;;;;;23.50;9.80;;;13.40;51.60;;;;;;5040989;28;20056;-71
2021/03/31 01:46:53;;;;;;;22.27;10.63;;;13.50;51.60;;;;;;5038969;28;20049;-72
2021/03/31 01:49:22;;;;;;;23.75;11.45;;;13.40;51.60;;;;;;5038755;28;20340;-71
2021/03/31 01:51:53;;;;;;;24.77;13.05;;;13.30;52.10;;;;;;5043765;28;20053;-71
2021/03/31 01:54:20;;;;;;;25.38;13.05;;;13.00;53.40;;;;;;5045045;28;20431;-70
2021/03/31 01:56:48;;;;;;;26.08;12.02;;;13.00;53.30;;;;;;5035804;28;20065;-70
2021/03/31 01:59:19;;;;;;;23.38;11.98;;;13.00;53.40;;;;;;5041073;28;20111;-71
2021/03/31 02:01:52;;;;;;;26.02;12.02;;;13.10;53.00;;;;;;5044503;28;20455;-71
2021/03/31 02:04:19;;;;;;;22.38;11.15;;;13.00;53.00;;;;;;5041801;28;20057;-72
2021/03/31 02:06:46;;;;;;;26.13;11.15;;;13.00;52.90;;;;;;5044295;28;20084;-71
2021/03/31 02:09:14;;;;;;;19.45;10.90;;;13.20;52.20;;;;;;5039141;28;20091;-71
2021/03/31 02:11:44;;;;;;;21.08;9.88;;;13.20;52.00;;;;;;5039364;28;20133;-71
2021/03/31 02:14:17;;;;;;;23.55;10.32;;;13.20;52.00;;;;;;5043842;28;20095;-71
2021/03/31 02:16:44;;;;;;;21.33;9.95;;;13.10;52.30;;;;;;5043052;28;20056;-70
2021/03/31 02:19:20;;;;;;;22.40;10.27;;;13.10;52.30;;;;;;5034822;28;20479;-72
2021/03/31 02:21:48;;;;;;;21.08;10.60;;;13.20;52.20;;;;;;5039620;28;20084;-70
2021/03/31 02:24:19;;;;;;;20.77;11.10;;;13.20;52.10;;;;;;5044273;28;20045;-71
2021/03/31 02:26:45;;;;;;;23.55;10.88;;;13.10;52.60;;;;;;5046621;28;20042;-71
2021/03/31 02:29:12;;;;;;;23.83;10.40;;;13.00;52.90;;;;;;5038512;28;20088;-71
2021/03/31 02:31:40;;;;;;;21.88;10.35;;;13.00;53.00;;;;;;5043788;28;20057;-70
2021/03/31 02:34:07;;;;;;;22.23;10.88;;;13.00;53.10;;;;;;5044878;28;20061;-70
2021/03/31 02:36:54;;;;;;;24.92;10.60;;;13.00;53.20;;;;;;5042154;28;20049;-70
2021/03/31 02:39:22;;;;;;;21.30;10.15;;;12.80;53.20;;;;;;5043181;28;20138;-70
2021/03/31 02:41:51;;;;;;;26.33;9.77;;;12.80;53.50;;;;;;5045467;28;20056;-70
2021/03/31 02:44:21;;;;;;;18.50;9.82;;;12.80;52.90;;;;;;5045484;28;20107;-71
2021/03/31 02:46:49;;;;;;;15.25;9.50;;;12.80;53.20;;;;;;5079316;28;20059;-70
2021/03/31 02:49:18;;;;;;;22.92;8.98;;;12.80;52.80;;;;;;5044279;28;20041;-71
2021/03/31 02:51:46;;;;;;;18.25;8.98;;;12.90;52.10;;;;;;5043656;28;20145;-71
2021/03/31 02:54:14;;;;;;;16.55;9.23;;;12.90;52.00;;;;;;5043588;28;20159;-70
2021/03/31 02:56:43;;;;;;;15.25;8.30;;;12.70;52.10;;;;;;5041893;28;20049;-72
2021/03/31 02:59:10;;;;;;;20.27;8.13;;;12.70;52.10;;;;;;5048267;28;20041;-70
2021/03/31 03:01:38;;;;;;;19.25;8.75;;;12.60;52.50;;;;;;5038083;28;20545;-70
2021/03/31 03:04:06;;;;;;;15.07;7.90;;;12.80;51.80;;;;;;5043580;28;20136;-71
2021/03/31 03:06:32;;;;;;;17.83;7.65;;;12.70;51.30;;;;;;5048872;28;20056;-72
2021/03/31 03:09:03;;;;;;;22.58;8.02;;;12.60;51.30;;;;;;5039295;28;20463;-71
2021/03/31 03:11:31;;;;;;;15.75;8.50;;;12.70;51.30;;;;;;5080660;28;20045;-71
2021/03/31 03:14:00;;;;;;;16.88;8.35;;;12.70;50.80;;;;;;5047331;28;20053;-71
2021/03/31 03:16:27;;;;;;;13.20;7.68;;;12.70;50.80;;;;;;5039393;28;20098;-71
2021/03/31 03:18:53;;;;;;;16.13;7.85;;;12.60;50.70;;;;;;5045395;28;20476;-71
2021/03/31 03:21:20;;;;;;;16.10;8.10;;;12.40;51.20;;;;;;5042214;28;20065;-71
2021/03/31 03:23:48;;;;;;;20.65;8.10;;;12.40;51.20;;;;;;5044078;28;20052;-71
2021/03/31 03:26:16;;;;;;;18.75;8.70;;;12.70;50.70;;;;;;5044299;28;20041;-70
2021/03/31 03:28:48;;;;;;;13.55;7.85;;;12.70;50.60;;;;;;5039505;28;20145;-71
2021/03/31 03:31:15;;;;;;;12.90;8.00;;;12.60;50.90;;;;;;5040806;28;20111;-70
2021/03/31 03:33:42;;;;;;;14.63;7.68;;;12.50;51.10;;;;;;5038480;28;20044;-71
2021/03/31 03:36:13;;;;;;;15.50;8.40;;;12.50;51.40;;;;;;5040164;28;20049;-73
2021/03/31 03:38:41;;;;;;;21.02;8.10;;;12.50;51.20;;;;;;5042041;28;20162;-71
2021/03/31 03:41:11;;;;;;;16.55;8.18;;;12.30;51.50;;;;;;5042069;28;20456;-70
2021/03/31 03:43:40;;;;;;;17.35;8.30;;;12.30;51.20;;;;;;5044883;28;20077;-69
2021/03/31 03:46:11;;;;;;;13.60;7.75;;;12.30;51.20;;;;;;5044651;28;20045;-71
2021/03/31 03:48:38;;;;;;;15.80;8.27;;;12.40;51.10;;;;;;5040596;28;20099;-70
2021/03/31 03:51:06;;;;;;;16.42;8.48;;;12.40;50.80;;;;;;5044982;28;20094;-69
2021/03/31 03:53:33;;;;;;;23.38;7.88;;;12.30;51.10;;;;;;5045922;28;20079;-71
2021/03/31 03:56:02;;;;;;;17.33;7.72;;;12.40;51.00;;;;;;5043613;28;20099;-69
2021/03/31 03:58:28;;;;;;;14.15;7.88;;;12.50;50.80;;;;;;5043987;28;20053;-70
2021/03/31 04:00:56;;;;;;;11.63;6.78;;;12.50;50.50;;;;;;5046937;28;20080;-70
2021/03/31 04:03:23;;;;;;;15.45;7.40;;;12.50;50.70;;;;;;5068241;28;20046;-70
2021/03/31 04:05:49;;;;;;;21.25;7.57;;;12.50;50.60;;;;;;5037603;28;20049;-69
2021/03/31 04:08:15;;;;;;;16.98;8.25;;;12.60;50.40;;;;;;5045583;28;20049;-69
2021/03/31 04:10:45;;;;;;;15.23;7.32;;;12.50;50.90;;;;;;5038901;28;20053;-70
2021/03/31 04:13:12;;;;;;;13.05;7.43;;;12.40;50.70;;;;;;5036553;28;20460;-72
2021/03/31 04:15:43;;;;;;;12.95;7.03;;;12.30;50.90;;;;;;5043199;28;20052;-70
2021/03/31 04:18:12;;;;;;;16.80;8.48;;;12.10;50.80;;;;;;5038441;28;20099;-72
2021/03/31 04:20:40;;;;;;;22.85;7.65;;;12.20;51.10;;;;;;5037840;28;20084;-70
2021/03/31 04:23:07;;;;;;;19.10;7.80;;;12.20;51.20;;;;;;5038666;28;20048;-70
2021/03/31 04:25:33;;;;;;;17.60;8.13;;;12.20;51.20;;;;;;5032824;28;20073;-72
2021/03/31 04:28:06;;;;;;;13.85;7.45;;;12.20;51.40;;;;;;5046012;28;20457;-72
2021/03/31 04:30:33;;;;;;;17.13;7.55;;;12.30;51.20;;;;;;5043432;28;20053;-71
2021/03/31 04:33:00;;;;;;;15.93;7.78;;;12.30;51.30;;;;;;5045395;28;20057;-70
2021/03/31 04:35:27;;;;;;;19.77;8.55;;;12.20;51.60;;;;;;5039074;28;20441;-71
2021/03/31 04:38:09;;;;;;;13.30;8.02;;;12.20;51.60;;;;;;5046525;28;20504;-70
2021/03/31 04:40:58;;;;;;;17.80;8.45;;;12.10;51.40;;;;;;5036677;28;20067;-70
2021/03/31 04:43:30;;;;;;;21.52;8.57;;;11.80;52.90;;;;;;5044965;28;20049;-70
2021/03/31 04:46:01;;;;;;;16.48;8.57;;;11.70;52.80;;;;;;5036514;28;20045;-70
2021/03/31 04:48:28;;;;;;;17.35;8.52;;;11.90;52.70;;;;;;5045570;28;20053;-70
2021/03/31 04:50:55;;;;;;;18.58;9.45;;;12.00;52.30;;;;;;5038765;28;20058;-70
2021/03/31 04:53:22;;;;;;;17.48;8.25;;;12.20;52.10;;;;;;5051394;28;20045;-70
2021/03/31 04:55:49;;;;;;;17.10;8.50;;;12.00;52.20;;;;;;5041104;28;20135;-70
2021/03/31 04:58:16;;;;;;;20.75;8.52;;;12.10;52.40;;;;;;5042047;28;20092;-72
2021/03/31 05:00:43;;;;;;;21.92;8.82;;;12.00;52.40;;;;;;5044274;28;20049;-70
2021/03/31 05:03:09;;;;;;;20.83;10.45;;;12.10;52.90;;;;;;5041951;28;20049;-71
2021/03/31 05:05:38;;;;;;;23.08;9.82;;;11.80;53.90;;;;;;5031526;28;20041;-71
2021/03/31 05:08:05;;;;;;;18.48;9.25;;;11.70;54.90;;;;;;5038197;28;20167;-72
2021/03/31 05:10:32;;;;;;;20.08;9.63;;;11.70;54.90;;;;;;5039470;28;20056;-71
2021/03/31 05:12:58;;;;;;;17.73;9.57;;;11.80;55.10;;;;;;5042480;28;20083;-70
2021/03/31 05:15:25;;;;;;;18.30;9.02;;;11.80;54.60;;;;;;5043276;28;20431;-70
2021/03/31 05:17:54;;;;;;;21.88;9.88;;;11.90;54.70;;;;;;5036556;28;20118;-71
2021/03/31 05:20:20;;;;;;;17.25;9.25;;;12.00;54.60;;;;;;5046620;28;20049;-73
2021/03/31 05:22:47;;;;;;;23.98;10.82;;;11.90;54.60;;;;;;5041470;28;20045;-70
2021/03/31 05:25:13;;;;;;;31.98;10.10;;;11.90;55.00;;;;;;5037679;28;20044;-72
2021/03/31 05:27:40;;;;;;;20.27;9.85;;;12.00;55.00;;;;;;5045061;28;20075;-71
2021/03/31 05:30:10;;;;;;;23.80;9.38;;;12.10;54.70;;;;;;5041366;28;20044;-71
2021/03/31 05:32:36;;;;;;;23.08;10.50;;;11.80;55.20;;;;;;5069226;28;20397;-71
2021/03/31 05:35:07;;;;;;;23.85;10.73;;;11.70;56.20;;;;;;5044934;28;20045;-71
2021/03/31 05:37:34;;;;;;;22.67;10.00;;;11.60;56.30;;;;;;5034747;28;20512;-71
2021/03/31 05:40:03;;;;;;;21.95;10.43;;;11.60;56.10;;;;;;5040062;28;20052;-71
2021/03/31 05:42:29;;;;;;;25.52;10.50;;;11.60;55.90;;;;;;5043675;28;20083;-71
2021/03/31 05:44:58;;;;;;;25.60;10.93;;;11.50;55.80;;;;;;5044498;28;20049;-71
2021/03/31 05:47:36;;;;;;;23.13;10.95;;;11.50;55.60;;;;;;5042978;28;20114;-72
2021/03/31 05:50:09;;;;;;;21.65;10.20;;;11.50;55.30;;;;;;5046164;28;20041;-71
2021/03/31 05:52:36;;;;;;;21.88;10.15;;;11.60;54.90;;;;;;5043076;28;20483;-73
2021/03/31 05:55:05;;;;;;;22.17;10.60;;;11.90;54.40;;;;;;5039764;28;20144;-71
2021/03/31 05:57:34;;;;;;;22.83;10.38;;;11.90;53.90;;;;;;5042720;28;20065;-71
2021/03/31 06:00:03;;;;;;;20.42;10.23;;;12.00;53.70;;;;;;5041780;28;20103;-69
2021/03/31 06:02:29;;;;;;;18.55;9.77;;;13.20;52.70;;;;;;5039088;28;20072;-71
2021/03/31 06:04:56;;;;;;;22.50;9.50;;;14.10;50.70;;;;;;5043728;28;20053;-71
2021/03/31 06:07:22;;;;;;;19.50;9.48;;;15.10;49.20;;;;;;5048144;28;20053;-70
2021/03/31 06:10:12;;;;;;;23.20;10.15;;;16.10;47.40;;;;;;5045723;28;20049;-71
2021/03/31 06:12:40;;;;;;;28.95;11.00;;;16.10;46.20;;;;;;5043613;28;20045;-70
2021/03/31 06:15:24;;;;;;;20.88;9.38;;;15.80;47.50;;;;;;5046866;28;20433;-71
2021/03/31 06:17:56;;;;;;;22.80;9.45;;;16.20;46.50;;;;;;5038680;28;20052;-71
2021/03/31 06:20:51;;;;;;;23.27;9.30;;;15.30;47.10;;;;;;5040115;28;20045;-70
2021/03/31 06:24:02;;;;;;;25.27;9.88;;;15.30;48.10;;;;;;5047758;28;20075;-70
2021/03/31 06:26:31;;;;;;;20.10;9.52;;;15.70;47.60;;;;;;5041126;28;20099;-71
2021/03/31 06:28:58;;;;;;;19.80;10.15;;;15.60;47.10;;;;;;5040148;28;20516;-73
2021/03/31 06:31:38;;;;;;;24.83;10.75;;;15.90;46.80;;;;;;5042495;28;20061;-70
2021/03/31 06:34:07;;;;;;;29.40;11.18;;;15.20;47.50;;;;;;5043398;28;20095;-70
2021/03/31 06:36:38;;;;;;;23.30;10.63;;;14.70;48.70;;;;;;5046317;28;20171;-70
2021/03/31 06:39:32;;;;;;;24.80;10.75;;;14.80;49.60;;;;;;5045090;28;20097;-72
2021/03/31 06:42:02;;;;;;;19.63;10.45;;;14.60;48.80;;;;;;5039015;28;20049;-72
2021/03/31 06:44:39;;;;;;;27.60;11.43;;;14.30;49.80;;;;;;5043686;28;20076;-69
2021/03/31 06:47:11;;;;;;;26.08;11.77;;;14.70;48.30;;;;;;5031289;28;20140;-72
2021/03/31 06:49:39;;;;;;;21.65;10.27;;;15.40;48.00;;;;;;5038756;28;20432;-74
2021/03/31 06:52:08;;;;;;;28.17;11.18;;;14.80;48.80;;;;;;5028752;28;20061;-71
2021/03/31 06:54:42;;;;;;;24.95;10.93;;;15.60;46.70;;;;;;5035726;28;20065;-72
2021/03/31 06:57:33;;;;;;;22.23;11.23;;;16.10;45.80;;;;;;5032359;28;20049;-72
2021/03/31 07:00:00;;;;;;;26.90;9.98;;;16.50;44.70;;;;;;5036730;28;20045;-70
2021/03/31 07:02:31;;;;;;;30.27;11.43;;;17.50;43.90;;;;;;5036670;28;20045;-72
2021/03/31 07:04:58;;;;;;;21.05;10.73;;;16.60;45.10;;;;;;5034794;28;20123;-71
2021/03/31 07:07:41;;;;;;;19.85;10.82;;;16.40;44.10;;;;;;5037594;28;20131;-71
2021/03/31 07:10:15;;;;;;;27.50;11.75;;;17.70;42.80;;;;;;5034121;28;20068;-71
2021/03/31 07:12:44;;;;;;;20.05;10.60;;;19.20;43.10;;;;;;5029985;28;20040;-70
2021/03/31 07:15:18;;;;;;;30.92;12.73;;;19.70;39.00;;;;;;5037270;28;20046;-70
2021/03/31 07:17:58;;;;;;;26.63;12.02;;;19.20;39.70;;;;;;5035378;28;20076;-72
2021/03/31 07:20:28;;;;;;;28.27;11.13;;;19.20;39.20;;;;;;5035647;28;20111;-74
2021/03/31 07:22:58;;;;;;;26.13;12.20;;;18.30;39.40;;;;;;5031757;28;20121;-73
2021/03/31 07:25:24;;;;;;;;;;;16.80;41.90;;;;;;5035688;28;20089;-73
2021/03/31 07:27:54;;;;;;;23.17;10.57;;;17.40;41.80;;;;;;5033423;28;19924;-73
2021/03/31 07:30:24;;;;;;;34.35;11.70;;;18.80;40.90;;;;;;5036849;28;20049;-74
2021/03/31 07:33:15;;;;;;;25.55;11.05;;;19.10;39.70;;;;;;5037378;28;20401;-79
2021/03/31 07:35:42;;;;;;;23.30;10.40;;;19.10;39.50;;;;;;5039490;28;20159;-73
2021/03/31 07:38:12;;;;;;;31.05;9.82;;;18.30;39.50;;;;;;5036119;28;20753;-74
2021/03/31 07:40:40;;;;;;;17.83;9.15;;;18.40;39.80;;;;;;5033506;28;20056;-73
2021/03/31 07:43:29;;;;;;;22.52;9.68;;;17.70;40.20;;;;;;5032299;28;20049;-72
2021/03/31 07:46:05;;;;;;;16.17;8.52;;;16.60;42.00;;;;;;5029780;28;20057;-71
2021/03/31 07:48:31;;;;;;;24.55;9.32;;;16.80;43.00;;;;;;5033885;28;20049;-72
2021/03/31 07:51:21;;;;;;;22.13;9.02;;;16.80;42.50;;;;;;5028363;28;20053;-73
2021/03/31 07:53:50;;;;;;;27.10;9.23;;;16.60;43.10;;;;;;5032393;28;20107;-72
2021/03/31 07:56:25;;;;;;;17.30;8.13;;;16.10;43.50;;;;;;5031344;28;20107;-73
2021/03/31 07:59:04;;;;;;;18.08;8.40;;;16.30;43.30;;;;;;5034117;28;20488;-71
2021/03/31 08:02:06;;;;;;;17.73;7.93;;;16.70;42.40;;;;;;5027276;28;20041;-72
2021/03/31 08:04:34;;;;;;;17.17;8.15;;;17.70;41.40;;;;;;5027256;28;20076;-71
2021/03/31 08:07:29;;;;;;;18.42;8.30;;;17.30;40.90;;;;;;5030210;28;20076;-71
2021/03/31 08:10:36;;;;;;;14.85;8.00;;;17.10;41.70;;;;;;5030933;28;20060;-71
2021/03/31 08:13:32;;;;;;;17.73;8.23;;;17.10;41.10;;;;;;5029787;28;20480;-72
2021/03/31 08:16:01;;;;;;;14.82;7.25;;;18.40;39.70;;;;;;5035799;28;20046;-70
2021/03/31 08:18:29;;;;;;;21.73;7.63;;;18.50;39.00;;;;;;5032032;28;20442;-71
2021/03/31 08:20:56;;;;;;;15.15;7.75;;;18.60;38.90;;;;;;5028042;28;20140;-71
2021/03/31 08:23:45;;;;;;;15.95;7.53;;;17.80;40.20;;;;;;5030423;28;20041;-71
2021/03/31 08:26:33;;;;;;;15.90;7.72;;;17.90;39.80;;;;;;5029921;28;20037;-71
2021/03/31 08:29:20;;;;;;;18.08;7.43;;;17.20;41.30;;;;;;5032339;28;20053;-73
2021/03/31 08:31:55;;;;;;;15.35;8.00;;;17.40;41.80;;;;;;5027801;28;20100;-73
2021/03/31 08:34:29;;;;;;;22.75;8.05;;;18.00;41.70;;;;;;5033824;28;20071;-71
2021/03/31 08:36:56;;;;;;;17.63;7.00;;;19.20;39.80;;;;;;5027810;28;20087;-72
2021/03/31 08:39:23;;;;;;;17.42;7.88;;;20.00;39.50;;;;;;5032121;28;20409;-72
2021/03/31 08:41:52;;;;;;;18.85;8.20;;;18.80;40.10;;;;;;5028563;28;20037;-71
2021/03/31 08:44:31;;;;;;;19.13;8.38;;;18.40;41.10;;;;;;5032042;28;20516;-71
2021/03/31 08:47:16;;;;;;;17.90;7.97;;;18.60;41.60;;;;;;5026346;28;20045;-71
2021/03/31 08:49:45;;;;;;;19.42;8.23;;;19.40;40.20;;;;;;5031443;28;20040;-71
2021/03/31 08:52:15;;;;;;;20.08;8.85;;;20.30;39.00;;;;;;5029508;28;20052;-71
2021/03/31 08:54:46;;;;;;;17.83;8.60;;;20.60;38.40;;;;;;5031546;28;20076;-70
2021/03/31 08:57:24;;;;;;;19.98;8.98;;;21.10;37.80;;;;;;5030811;28;20049;-72
2021/03/31 08:59:57;;;;;;;16.88;7.82;;;22.00;37.70;;;;;;5031636;28;20052;-71
2021/03/31 09:02:27;;;;;;;20.77;9.13;;;22.00;36.50;;;;;;5028054;28;20455;-72
2021/03/31 09:05:02;;;;;;;20.15;9.23;;;21.00;37.70;;;;;;5045106;28;20044;-71
2021/03/31 09:07:29;;;;;;;20.25;8.95;;;19.90;38.60;;;;;;5030488;28;20095;-72
2021/03/31 09:09:55;;;;;;;18.90;8.43;;;20.10;39.70;;;;;;5031307;28;20041;-72
2021/03/31 09:12:25;;;;;;;20.92;9.52;;;20.00;39.50;;;;;;5028207;28;20053;-72
2021/03/31 09:14:55;;;;;;;20.23;9.45;;;19.00;40.40;;;;;;5029560;28;20052;-70
2021/03/31 09:17:26;;;;;;;20.83;9.57;;;19.70;40.40;;;;;;5031292;28;20092;-70
2021/03/31 09:19:58;;;;;;;25.30;10.60;;;20.50;38.60;;;;;;5023803;28;20053;-75
2021/03/31 09:22:30;;;;;;;21.75;10.23;;;19.90;39.50;;;;;;5034693;28;20136;-74
2021/03/31 09:25:09;;;;;;;23.52;10.30;;;19.50;39.70;;;;;;5038789;28;20116;-72
2021/03/31 09:27:55;;;;;;;23.10;10.38;;;20.50;39.30;;;;;;5032816;28;22000;-72
2021/03/31 09:30:23;;;;;;;24.73;10.18;;;20.90;37.70;;;;;;5032442;28;20049;-74
2021/03/31 09:32:59;;;;;;;32.38;11.90;;;20.60;38.50;;;;;;5029986;28;20521;-72
2021/03/31 09:35:28;;;;;;;26.00;10.52;;;21.30;37.60;;;;;;5034485;28;20047;-73
2021/03/31 09:37:57;;;;;;;22.20;10.23;;;22.80;36.40;;;;;;5034062;28;20061;-73
2021/03/31 09:40:37;;;;;;;24.50;10.30;;;23.90;34.30;;;;;;5031805;28;20050;-73
2021/03/31 09:43:08;;;;;;;22.38;10.43;;;24.60;33.30;;;;;;5032912;28;20626;-73
2021/03/31 09:45:35;;;;;;;21.65;9.73;;;25.40;33.20;;;;;;5033640;28;20048;-72
2021/03/31 09:48:04;;;;;;;25.25;10.35;;;25.90;32.30;;;;;;5034461;28;20130;-73
2021/03/31 09:50:35;;;;;;;23.15;10.65;;;26.10;31.80;;;;;;5040545;28;20052;-73
2021/03/31 09:53:04;;;;;;;22.35;10.82;;;24.90;32.20;;;;;;5044578;28;20162;-71
2021/03/31 09:55:31;;;;;;;26.20;11.45;;;24.40;33.60;;;;;;5043615;28;20052;-72
2021/03/31 09:58:02;;;;;;;25.27;10.80;;;24.40;32.30;;;;;;5044040;28;20140;-72
2021/03/31 10:00:29;;;;;;;22.20;11.18;;;22.80;34.50;;;;;;5042872;28;20061;-73
2021/03/31 10:02:57;;;;;;;21.13;10.52;;;21.60;36.20;;;;;;5046385;28;20158;-73
2021/03/31 10:05:26;;;;;;;23.00;10.68;;;21.90;36.10;;;;;;5043999;28;20523;-72
2021/03/31 10:08:06;;;;;;;24.52;11.70;;;21.90;36.50;;;;;;5046063;28;20552;-73
2021/03/31 10:10:47;;;;;;;25.17;11.00;;;22.50;36.20;;;;;;5046657;28;20041;-73
2021/03/31 10:13:16;;;;;;;21.73;10.68;;;22.50;36.00;;;;;;5044846;28;20586;-73
2021/03/31 10:15:47;;;;;;;21.10;10.63;;;23.10;35.70;;;;;;5048036;28;20056;-72
2021/03/31 10:18:15;;;;;;;21.38;10.68;;;22.90;35.60;;;;;;5041567;28;20114;-73
2021/03/31 10:20:46;;;;;;;22.45;10.23;;;22.30;36.50;;;;;;5043243;28;20487;-72
2021/03/31 10:23:34;;;;;;;22.30;10.35;;;23.20;35.60;;;;;;5040774;28;20055;-72
2021/03/31 10:26:22;;;;;;;23.88;10.50;;;24.90;34.00;;;;;;5044666;28;20072;-73
2021/03/31 10:29:03;;;;;;;21.58;10.45;;;24.90;33.30;;;;;;5047237;28;20061;-72
2021/03/31 10:31:50;;;;;;;24.17;10.52;;;22.70;35.30;;;;;;5044181;28;20063;-73
2021/03/31 10:34:18;;;;;;;23.45;10.07;;;22.00;36.30;;;;;;5045880;28;20511;-73
2021/03/31 10:40:00;;;;;;;19.30;10.10;;;22.30;35.80;;;;;;5038808;28;20155;-74
2021/03/31 10:51:19;;;;;;;19.23;10.45;;;23.00;36.00;;;;;;5047876;28;20060;-72
2021/03/31 10:53:48;;;;;;;23.80;9.18;;;24.50;34.80;;;;;;5047033;28;20088;-72
2021/03/31 10:56:15;;;;;;;22.25;10.23;;;24.40;33.80;;;;;;5047858;28;20118;-73
2021/03/31 10:58:41;;;;;;;18.50;9.48;;;23.70;35.20;;;;;;5045755;28;20049;-73
2021/03/31 11:01:09;;;;;;;19.85;9.40;;;24.30;34.00;;;;;;5045292;28;20075;-73
2021/03/31 11:03:35;;;;;;;21.60;9.77;;;23.40;34.40;;;;;;5046895;28;20804;-73
2021/03/31 11:06:03;;;;;;;24.52;9.63;;;23.20;34.50;;;;;;5052450;28;20052;-73
2021/03/31 11:08:29;;;;;;;25.25;10.15;;;23.30;35.00;;;;;;5048537;28;20057;-73
2021/03/31 11:10:56;;;;;;;28.88;9.57;;;24.40;33.60;;;;;;5047802;28;20059;-72
2021/03/31 11:13:23;;;;;;;23.80;9.73;;;23.80;33.70;;;;;;5046966;28;20123;-71
2021/03/31 11:15:52;;;;;;;24.58;9.15;;;23.50;35.00;;;;;;5041221;28;20057;-73
2021/03/31 11:18:50;;;;;;;25.17;9.77;;;23.00;35.00;;;;;;5045018;28;20049;-71
2021/03/31 11:26:18;;;;;;;18.27;8.80;;;26.00;32.70;;;;;;5043605;28;20076;-71
2021/03/31 11:28:45;;;;;;;19.48;8.35;;;26.30;31.90;;;;;;5049187;28;20056;-69
2021/03/31 11:31:11;;;;;;;18.80;8.98;;;27.10;31.90;;;;;;5047384;28;20494;-72
2021/03/31 11:33:38;;;;;;;19.27;9.10;;;29.50;29.50;;;;;;5047327;28;20138;-70
2021/03/31 11:36:09;;;;;;;19.55;9.00;;;31.00;27.80;;;;;;5049086;28;20056;-71
2021/03/31 11:38:40;;;;;;;19.67;8.55;;;31.00;27.40;;;;;;5048535;28;20057;-72
2021/03/31 11:41:10;;;;;;;16.85;8.77;;;31.10;26.90;;;;;;5061154;28;20044;-72
2021/03/31 11:43:36;;;;;;;19.58;8.23;;;31.70;27.00;;;;;;5047613;28;20053;-72
2021/03/31 11:46:04;;;;;;;23.60;9.00;;;32.20;26.00;;;;;;5049862;28;20495;-71
2021/03/31 11:48:31;;;;;;;20.60;9.35;;;29.80;28.10;;;;;;5048897;28;20045;-71
2021/03/31 11:50:57;;;;;;;16.67;8.07;;;28.40;29.00;;;;;;5048542;28;20485;-71
2021/03/31 11:53:29;;;;;;;15.13;7.30;;;28.20;29.80;;;;;;5040999;28;20045;-71
2021/03/31 11:55:59;;;;;;;17.05;7.70;;;27.40;30.00;;;;;;5047268;28;20106;-72
2021/03/31 11:58:25;;;;;;;20.65;7.35;;;28.90;29.50;;;;;;5041833;28;20087;-72
2021/03/31 12:00:52;;;;;;;18.38;8.05;;;29.20;29.50;;;;;;5047751;28;20164;-72
2021/03/31 12:03:20;;;;;;;17.42;8.07;;;28.30;30.00;;;;;;5046692;28;20061;-73
2021/03/31 12:05:47;;;;;;;16.50;7.25;;;28.00;29.60;;;;;;5047818;28;20048;-72
2021/03/31 12:08:14;;;;;;;15.77;7.38;;;27.20;31.70;;;;;;5046875;28;20062;-70
2021/03/31 12:10:40;;;;;;;16.90;7.53;;;27.20;31.30;;;;;;5048318;28;20449;-71
2021/03/31 12:13:06;;;;;;;17.13;7.22;;;27.20;31.70;;;;;;5045125;28;20614;-72
2021/03/31 12:15:33;;;;;;;14.73;7.15;;;26.60;31.10;;;;;;5037671;28;20151;-72
2021/03/31 12:17:59;;;;;;;19.60;6.90;;;26.40;32.40;;;;;;5043293;28;20454;-72
2021/03/31 12:20:26;;;;;;;14.95;7.30;;;26.10;33.30;;;;;;5040386;28;20067;-75
2021/03/31 12:22:53;;;;;;;22.40;7.57;;;26.50;32.80;;;;;;5045009;28;20045;-72
2021/03/31 12:25:21;;;;;;;15.73;7.05;;;27.20;31.10;;;;;;5043946;28;20057;-71
2021/03/31 12:27:50;;;;;;;15.90;7.22;;;27.00;33.00;;;;;;5043173;28;20081;-72
2021/03/31 12:30:18;;;;;;;24.45;7.20;;;27.30;31.00;;;;;;5041074;28;20516;-72
2021/03/31 12:32:45;;;;;;;15.00;6.93;;;27.40;31.80;;;;;;5041407;28;20543;-72
2021/03/31 12:35:12;;;;;;;13.88;6.53;;;27.60;33.00;;;;;;5038118;28;20045;-71
2021/03/31 12:37:39;;;;;;;15.43;6.82;;;28.40;31.20;;;;;;5045125;28;20478;-72
2021/03/31 12:40:07;;;;;;;14.95;7.53;;;29.10;29.70;;;;;;5041438;28;20076;-73
2021/03/31 12:42:33;;;;;;;17.15;6.90;;;28.50;30.10;;;;;;5042326;28;20037;-72
2021/03/31 12:45:01;;;;;;;16.27;6.70;;;29.70;31.50;;;;;;5039261;28;20053;-71
2021/03/31 12:47:27;;;;;;;13.90;6.68;;;30.10;28.80;;;;;;5030997;28;20041;-72
2021/03/31 12:49:54;;;;;;;17.10;6.38;;;29.70;28.90;;;;;;5038637;28;20394;-73
2021/03/31 12:52:32;;;;;;;10.32;5.50;;;29.90;29.50;;;;;;5037439;28;20103;-72
2021/03/31 12:55:04;;;;;;;18.95;6.80;;;29.00;28.90;;;;;;5041736;28;20052;-71
2021/03/31 12:57:31;;;;;;;12.80;6.70;;;30.90;28.40;;;;;;5070222;28;20389;-72
2021/03/31 12:59:58;;;;;;;10.82;5.75;;;31.10;27.60;;;;;;5041307;28;20048;-72
2021/03/31 13:02:47;;;;;;;17.58;6.60;;;31.50;28.00;;;;;;5033375;28;20545;-73
2021/03/31 13:05:36;;;;;;;17.85;5.65;;;31.50;26.60;;;;;;5014746;28;20063;-74
2021/03/31 13:08:23;;;;;;;16.70;5.63;;;31.50;27.40;;;;;;5044120;28;20060;-73
2021/03/31 13:11:11;;;;;;;11.75;4.80;;;32.30;25.90;;;;;;5069042;28;20048;-72